Time;durP1;ratioP1;P1;durP2;ratioP2;P2;SDS_P1;SDS_P2;PMS_P1;PMS_P2;Temp;Humidity;BMP_temperature;BMP_pressure;BME280_temperature;BME280_humidity;BME280_pressure;Samples;Min_cycle;Max_cycle;Signal;HPM_P1;HPM_P2
2022/09/28 00:00:56;;;;;;;;;;;8.10;99.90;;;;;;12469672;28;19929;-83
2022/09/28 00:06:58;;;;;;;;;;;8.10;99.90;;;;;;12470501;28;20314;-84
2022/09/28 00:13:00;;;;;;;;;;;8.10;99.90;;;;;;12472613;28;19929;-83
2022/09/28 00:19:03;;;;;;;;;;;8.10;99.90;;;;;;12466361;28;19926;-84
2022/09/28 00:25:05;;;;;;;;;;;8.10;99.90;;;;;;12494660;28;19936;-84
2022/09/28 00:31:07;;;;;;;;;;;8.10;99.90;;;;;;12469739;28;19925;-84
2022/09/28 00:37:09;;;;;;;;;;;8.10;99.90;;;;;;12480505;28;19925;-84
2022/09/28 00:43:20;;;;;;;;;;;7.90;99.90;;;;;;12482548;28;19936;-84
2022/09/28 00:49:29;;;;;;;;;;;7.90;99.90;;;;;;12477043;28;19929;-84
2022/09/28 00:55:35;;;;;;;;;;;7.90;99.90;;;;;;12479746;28;20042;-85
2022/09/28 01:01:37;;;;;;;;;;;7.80;99.90;;;;;;12467923;28;19932;-85
2022/09/28 01:07:39;;;;;;;;;;;7.70;99.90;;;;;;12452968;28;20037;-84
2022/09/28 01:13:42;;;;;;;;;;;7.70;99.90;;;;;;12461033;28;19949;-84
2022/09/28 01:19:46;;;;;;;;;;;7.60;99.90;;;;;;12466144;28;19925;-84
2022/09/28 01:25:51;;;;;;;;;;;7.70;99.90;;;;;;12484440;28;19931;-84
2022/09/28 01:32:00;;;;;;;;;;;7.70;99.90;;;;;;12469403;28;19932;-84
2022/09/28 01:38:04;;;;;;;;;;;7.80;99.90;;;;;;12475377;28;19940;-84
2022/09/28 01:44:09;;;;;;;;;;;7.80;99.90;;;;;;12475564;28;20310;-84
2022/09/28 01:50:15;;;;;;;;;;;7.80;99.90;;;;;;12467283;28;19926;-84
2022/09/28 01:56:20;;;;;;;;;;;7.80;99.90;;;;;;12481769;28;19932;-84
2022/09/28 02:02:24;;;;;;;;;;;7.80;99.90;;;;;;12476965;28;19933;-84
2022/09/28 02:08:30;;;;;;;;;;;7.80;99.90;;;;;;12450916;28;19980;-84
2022/09/28 02:14:33;;;;;;;;;;;7.90;99.90;;;;;;12469119;28;19941;-84
2022/09/28 02:20:36;;;;;;;;;;;7.90;99.90;;;;;;12469491;28;19932;-84
2022/09/28 02:26:40;;;;;;;;;;;7.90;99.90;;;;;;12479002;28;19935;-84
2022/09/28 02:32:44;;;;;;;;;;;7.90;99.90;;;;;;12483838;28;19936;-84
2022/09/28 02:38:45;;;;;;;;;;;8.00;99.90;;;;;;12474317;28;19925;-84
2022/09/28 02:44:56;;;;;;;;;;;7.90;99.90;;;;;;12475181;28;19925;-84
2022/09/28 02:50:58;;;;;;;;;;;7.90;99.90;;;;;;12480831;28;19925;-84
2022/09/28 02:57:02;;;;;;;;;;;7.90;99.90;;;;;;12465142;28;19933;-84
2022/09/28 03:03:12;;;;;;;;;;;7.90;99.90;;;;;;12476363;28;19929;-84
2022/09/28 03:09:14;;;;;;;;;;;7.80;99.90;;;;;;12462763;28;19925;-84
2022/09/28 03:15:19;;;;;;;;;;;7.90;99.90;;;;;;12464952;28;19926;-85
2022/09/28 03:21:20;;;;;;;;;;;8.00;99.90;;;;;;12482129;28;19925;-84
2022/09/28 03:27:22;;;;;;;;;;;7.90;99.90;;;;;;12456756;28;19956;-84
2022/09/28 03:33:24;;;;;;;;;;;7.90;99.90;;;;;;12466718;28;20317;-84
2022/09/28 03:39:25;;;;;;;;;;;7.90;99.90;;;;;;12470458;28;20358;-84
2022/09/28 03:45:27;;;;;;;;;;;7.90;99.90;;;;;;12459346;28;19933;-84
2022/09/28 03:51:29;;;;;;;;;;;7.90;99.90;;;;;;12463886;28;19925;-85
2022/09/28 03:57:30;;;;;;;;;;;7.90;99.90;;;;;;12467477;28;19926;-84
2022/09/28 04:03:32;;;;;;;;;;;7.80;99.90;;;;;;12476841;28;19944;-84
2022/09/28 04:09:34;;;;;;;;;;;7.80;99.90;;;;;;12468641;28;19975;-84
2022/09/28 04:15:37;;;;;;;;;;;7.70;99.90;;;;;;12467315;28;19932;-84
2022/09/28 04:21:39;;;;;;;;;;;7.60;99.90;;;;;;12462508;28;19926;-85
2022/09/28 04:34:01;;;;;;;;;;;7.70;99.90;;;;;;12475885;28;19925;-84
2022/09/28 04:40:03;;;;;;;;;;;7.70;99.90;;;;;;12473676;28;20290;-84
2022/09/28 04:46:05;;;;;;;;;;;7.70;99.90;;;;;;12477463;28;20388;-84
2022/09/28 04:52:07;;;;;;;;;;;7.70;99.90;;;;;;12450966;28;20052;-84
2022/09/28 04:58:08;;;;;;;;;;;7.80;99.90;;;;;;12460515;28;19975;-84
2022/09/28 05:04:10;;;;;;;;;;;7.70;99.90;;;;;;12481206;28;19926;-84
2022/09/28 05:10:12;;;;;;;;;;;7.70;99.90;;;;;;12445155;28;21199;-84
2022/09/28 05:16:14;;;;;;;;;;;7.70;99.90;;;;;;12451530;28;19936;-84
2022/09/28 05:22:16;;;;;;;;;;;7.50;99.90;;;;;;12476876;28;19949;-85
2022/09/28 05:28:21;;;;;;;;;;;7.60;99.90;;;;;;12468114;28;20396;-85
2022/09/28 05:34:22;;;;;;;;;;;7.60;99.90;;;;;;12465241;28;19929;-85
2022/09/28 05:40:24;;;;;;;;;;;7.60;99.90;;;;;;12480725;28;19932;-85
2022/09/28 05:46:26;;;;;;;;;;;7.60;99.90;;;;;;12463329;28;19957;-85
2022/09/28 05:52:27;;;;;;;;;;;7.60;99.90;;;;;;12477094;28;19925;-85
2022/09/28 05:58:29;;;;;;;;;;;7.60;99.90;;;;;;12455099;28;19933;-85
2022/09/28 06:04:31;;;;;;;;;;;7.70;99.90;;;;;;12476208;28;19925;-85
2022/09/28 06:10:33;;;;;;;;;;;7.60;99.90;;;;;;12466606;28;19930;-85
2022/09/28 06:16:34;;;;;;;;;;;7.70;99.90;;;;;;12456000;28;20258;-85
2022/09/28 06:22:42;;;;;;;;;;;7.60;99.90;;;;;;12451877;28;20297;-85
2022/09/28 06:28:43;;;;;;;;;;;7.60;99.90;;;;;;12463107;28;19936;-85
2022/09/28 06:34:45;;;;;;;;;;;7.70;99.90;;;;;;12460941;28;19929;-85
2022/09/28 06:40:47;;;;;;;;;;;7.70;99.90;;;;;;12465366;28;20309;-85
2022/09/28 06:46:49;;;;;;;;;;;7.70;99.90;;;;;;12463621;28;19926;-85
2022/09/28 06:52:52;;;;;;;;;;;7.60;99.90;;;;;;12458941;28;19925;-85
2022/09/28 06:58:54;;;;;;;;;;;7.70;99.90;;;;;;12452636;28;19929;-85
2022/09/28 07:04:56;;;;;;;;;;;7.70;99.90;;;;;;12469063;28;19933;-85
2022/09/28 07:10:57;;;;;;;;;;;7.80;99.90;;;;;;12474680;28;20308;-85
2022/09/28 07:16:59;;;;;;;;;;;7.90;99.90;;;;;;12455790;28;19932;-85
2022/09/28 07:23:17;;;;;;;;;;;8.00;99.90;;;;;;12473940;28;20455;-85
2022/09/28 07:29:20;;;;;;;;;;;8.20;99.90;;;;;;12477135;28;19926;-85
2022/09/28 07:35:22;;;;;;;;;;;8.30;99.90;;;;;;12485238;28;19933;-85
2022/09/28 07:41:31;;;;;;;;;;;8.20;99.90;;;;;;12477359;28;20348;-85
2022/09/28 07:47:33;;;;;;;;;;;8.30;99.90;;;;;;12467109;28;19935;-85
2022/09/28 07:53:37;;;;;;;;;;;8.30;99.90;;;;;;12473253;28;20397;-85
2022/09/28 07:59:39;;;;;;;;;;;8.40;99.90;;;;;;12484496;28;19925;-85
2022/09/28 08:05:41;;;;;;;;;;;8.40;99.90;;;;;;12458971;28;19932;-85
2022/09/28 08:11:43;;;;;;;;;;;8.30;99.90;;;;;;12460512;28;20305;-85
2022/09/28 08:17:45;;;;;;;;;;;8.10;99.90;;;;;;12472286;28;19925;-85
2022/09/28 08:23:47;;;;;;;;;;;8.10;99.90;;;;;;12482074;28;19925;-85
2022/09/28 08:29:48;;;;;;;;;;;8.30;99.90;;;;;;12465137;28;19937;-85
2022/09/28 08:35:56;;;;;;;;;;;8.30;99.90;;;;;;12477469;28;19925;-85
2022/09/28 08:42:16;;;;;;;;;;;8.20;99.90;;;;;;12486028;28;19925;-85
2022/09/28 08:54:49;;;;;;;;;;;8.40;99.90;;;;;;12470047;28;19926;-85
2022/09/28 09:00:51;;;;;;;;;;;8.30;99.90;;;;;;12461650;28;19929;-86
2022/09/28 09:07:01;;;;;;;;;;;8.20;99.90;;;;;;12467212;28;19929;-85
2022/09/28 09:13:06;;;;;;;;;;;8.40;99.90;;;;;;12455174;28;19936;-85
2022/09/28 09:19:14;;;;;;;;;;;8.40;99.90;;;;;;12476512;28;19936;-85
2022/09/28 09:25:27;;;;;;;;;;;8.40;99.90;;;;;;12473802;28;19925;-85
2022/09/28 09:31:47;;;;;;;;;;;8.40;99.90;;;;;;12465476;28;19925;-85
2022/09/28 09:38:08;;;;;;;;;;;8.30;99.90;;;;;;12471471;28;19936;-85
2022/09/28 09:44:17;;;;;;;;;;;8.40;99.90;;;;;;12478422;28;19940;-86
2022/09/28 09:50:38;;;;;;;;;;;8.40;99.90;;;;;;12465026;28;19928;-85
2022/09/28 09:57:03;;;;;;;;;;;8.50;99.90;;;;;;12472376;28;19925;-85
2022/09/28 10:03:05;;;;;;;;;;;8.50;99.90;;;;;;12460185;28;19948;-85
2022/09/28 10:09:12;;;;;;;;;;;8.80;99.90;;;;;;12460567;28;19925;-85
2022/09/28 10:15:22;;;;;;;;;;;8.90;99.90;;;;;;12472585;28;20028;-85
2022/09/28 10:21:24;;;;;;;;;;;8.90;99.90;;;;;;12451245;28;19933;-86
2022/09/28 10:27:28;;;;;;;;;;;9.00;99.90;;;;;;12463134;28;19925;-86
2022/09/28 10:33:31;;;;;;;;;;;9.20;99.90;;;;;;12458947;28;19929;-86
2022/09/28 10:39:35;;;;;;;;;;;9.20;99.90;;;;;;12462618;28;19928;-86
2022/09/28 10:45:37;;;;;;;;;;;9.30;99.90;;;;;;12465932;28;19925;-86
2022/09/28 10:51:40;;;;;;;;;;;9.70;99.90;;;;;;12469535;28;19963;-86
2022/09/28 10:57:42;;;;;;;;;;;10.40;99.90;;;;;;12459331;28;19932;-86
2022/09/28 11:03:52;;;;;;;;;;;10.40;99.90;;;;;;12471341;28;19951;-86
2022/09/28 11:09:54;;;;;;;;;;;10.20;99.90;;;;;;12450581;28;19929;-86
2022/09/28 11:15:56;;;;;;;;;;;10.00;99.90;;;;;;12466963;28;19926;-86
2022/09/28 11:21:57;;;;;;;;;;;9.80;99.90;;;;;;12464989;28;19926;-86
2022/09/28 11:28:03;;;;;;;;;;;9.70;99.90;;;;;;12459997;28;19925;-86
2022/09/28 11:34:19;;;;;;;;;;;9.90;99.90;;;;;;12476968;28;19933;-86
2022/09/28 11:40:55;;;;;;;;;;;10.50;99.90;;;;;;12466196;28;20403;-87
2022/09/28 11:47:06;;;;;;;;;;;11.20;99.90;;;;;;12467078;28;20016;-87
2022/09/28 11:53:11;;;;;;;;;;;12.10;99.90;;;;;;12462624;28;19925;-87
2022/09/28 11:59:14;;;;;;;;;;;11.60;99.90;;;;;;12462086;28;19925;-87
2022/09/28 12:05:39;;;;;;;;;;;11.80;99.90;;;;;;12466448;28;19953;-87
2022/09/28 12:11:43;;;;;;;;;;;11.30;99.90;;;;;;12455962;28;19929;-87
2022/09/28 12:18:00;;;;;;;;;;;11.50;99.90;;;;;;12465235;28;19925;-87
2022/09/28 12:24:17;;;;;;;;;;;12.10;99.90;;;;;;12461344;28;19933;-87
2022/09/28 12:30:20;;;;;;;;;;;12.50;99.90;;;;;;12468394;28;19929;-87
2022/09/28 12:36:40;;;;;;;;;;;12.80;99.90;;;;;;12484263;28;19925;-87
2022/09/28 12:42:43;;;;;;;;;;;12.80;99.90;;;;;;12474574;28;20312;-87
2022/09/28 12:48:56;;;;;;;;;;;12.10;99.90;;;;;;12460338;28;19940;-87
2022/09/28 12:55:29;;;;;;;;;;;11.70;99.90;;;;;;12479612;28;19936;-87
2022/09/28 13:01:43;;;;;;;;;;;11.20;99.90;;;;;;12468769;28;20285;-87
2022/09/28 13:07:48;;;;;;;;;;;10.80;99.90;;;;;;12478030;28;20443;-87
2022/09/28 13:14:09;;;;;;;;;;;10.60;99.90;;;;;;12465030;28;19925;-87
2022/09/28 13:20:16;;;;;;;;;;;10.40;99.90;;;;;;12464269;28;19925;-86
2022/09/28 13:26:22;;;;;;;;;;;10.10;99.90;;;;;;12481441;28;19986;-86
2022/09/28 13:32:25;;;;;;;;;;;9.60;99.90;;;;;;12474011;28;19937;-85
2022/09/28 13:38:28;;;;;;;;;;;9.30;99.90;;;;;;12477269;28;20392;-86
2022/09/28 13:44:30;;;;;;;;;;;9.30;99.90;;;;;;12470482;28;19925;-85
2022/09/28 13:50:37;;;;;;;;;;;9.30;99.90;;;;;;12462578;28;20392;-86
2022/09/28 13:57:04;;;;;;;;;;;9.10;99.90;;;;;;12457332;28;19925;-85
2022/09/28 14:03:24;;;;;;;;;;;9.00;99.90;;;;;;12475986;28;19925;-86
2022/09/28 14:09:38;;;;;;;;;;;9.00;99.90;;;;;;12465829;28;20415;-86
2022/09/28 14:15:43;;;;;;;;;;;9.10;99.90;;;;;;12463610;28;19925;-86
2022/09/28 14:22:05;;;;;;;;;;;9.10;99.90;;;;;;12461855;28;19933;-86
2022/09/28 14:28:07;;;;;;;;;;;9.20;99.90;;;;;;12461274;28;19930;-86
2022/09/28 14:34:22;;;;;;;;;;;9.20;99.90;;;;;;12506477;28;19972;-86
2022/09/28 14:47:10;;;;;;;;;;;9.80;99.90;;;;;;12520709;28;19920;-87
2022/09/28 14:53:22;;;;;;;;;;;9.90;99.90;;;;;;12522686;28;19936;-86
2022/09/28 14:59:29;;;;;;;;;;;10.20;99.90;;;;;;12519723;28;19929;-85
2022/09/28 15:05:45;;;;;;;;;;;10.40;99.90;;;;;;12481228;28;19925;-86
2022/09/28 15:11:47;;;;;;;;;;;10.60;99.90;;;;;;12466363;28;19947;-86
2022/09/28 15:17:56;;;;;;;;;;;10.30;99.90;;;;;;12461726;28;20301;-86
2022/09/28 15:23:57;;;;;;;;;;;10.00;99.90;;;;;;12461230;28;19925;-86
2022/09/28 15:30:00;;;;;;;;;;;10.00;99.90;;;;;;12470016;28;19926;-86
2022/09/28 15:36:04;;;;;;;;;;;9.90;99.90;;;;;;12476100;28;19925;-86
2022/09/28 15:42:06;;;;;;;;;;;9.90;99.90;;;;;;12487850;28;19926;-86
2022/09/28 15:48:17;;;;;;;;;;;9.90;99.90;;;;;;12497210;28;19936;-85
2022/09/28 15:54:23;;;;;;;;;;;9.90;99.90;;;;;;12479141;28;20305;-86
2022/09/28 16:00:29;;;;;;;;;;;9.90;99.90;;;;;;12481590;28;19932;-86
2022/09/28 16:06:30;;;;;;;;;;;9.80;99.90;;;;;;12495534;28;19926;-86
2022/09/28 16:12:39;;;;;;;;;;;9.80;99.90;;;;;;12478763;28;19933;-85
2022/09/28 16:18:46;;;;;;;;;;;9.80;99.90;;;;;;12480259;28;19933;-86
2022/09/28 16:24:57;;;;;;;;;;;9.80;99.90;;;;;;12464091;28;19925;-85
2022/09/28 16:31:21;;;;;;;;;;;9.80;99.90;;;;;;12492160;28;20333;-86
2022/09/28 16:37:32;;;;;;;;;;;9.80;99.90;;;;;;12482132;28;19929;-86
2022/09/28 16:43:35;;;;;;;;;;;9.90;99.90;;;;;;12477899;28;19932;-86
2022/09/28 16:49:38;;;;;;;;;;;9.80;99.90;;;;;;12471621;28;19929;-86
2022/09/28 16:55:40;;;;;;;;;;;9.70;99.90;;;;;;12472475;28;19933;-86
2022/09/28 17:01:42;;;;;;;;;;;9.50;99.90;;;;;;12480491;28;19933;-86
2022/09/28 17:07:45;;;;;;;;;;;9.30;99.90;;;;;;12452853;28;19926;-85
2022/09/28 17:13:47;;;;;;;;;;;9.20;99.90;;;;;;12396031;28;20420;-86
2022/09/28 17:19:48;;;;;;;;;;;9.10;99.90;;;;;;12406000;28;19925;-86
2022/09/28 17:25:50;;;;;;;;;;;9.00;99.90;;;;;;12397534;28;19925;-85
2022/09/28 17:31:53;;;;;;;;;;;8.90;99.90;;;;;;12416361;28;19929;-86
2022/09/28 17:37:55;;;;;;;;;;;8.90;99.90;;;;;;12400722;28;19964;-85
2022/09/28 17:43:57;;;;;;;;;;;8.80;99.90;;;;;;12415032;28;19925;-85
2022/09/28 17:49:58;;;;;;;;;;;8.70;99.90;;;;;;12409992;28;19925;-85
2022/09/28 17:56:00;;;;;;;;;;;8.70;99.90;;;;;;12413747;28;19933;-85
2022/09/28 18:02:02;;;;;;;;;;;8.60;99.90;;;;;;12407957;28;19932;-85
2022/09/28 18:08:03;;;;;;;;;;;8.70;99.90;;;;;;12417439;28;19933;-85
2022/09/28 18:14:05;;;;;;;;;;;8.70;99.90;;;;;;12450918;28;19929;-85
2022/09/28 18:20:12;;;;;;;;;;;8.80;99.90;;;;;;12466807;28;19925;-85
2022/09/28 18:26:14;;;;;;;;;;;8.80;99.90;;;;;;12450327;28;20308;-85
2022/09/28 18:32:16;;;;;;;;;;;8.80;99.90;;;;;;12472782;28;19933;-85
2022/09/28 18:38:17;;;;;;;;;;;8.80;99.90;;;;;;12474883;28;19924;-85
2022/09/28 18:44:19;;;;;;;;;;;8.80;99.90;;;;;;12479129;28;19948;-85
2022/09/28 18:50:21;;;;;;;;;;;8.80;99.90;;;;;;12473719;28;19929;-85
2022/09/28 18:56:22;;;;;;;;;;;8.80;99.90;;;;;;12462911;28;19929;-85
2022/09/28 19:02:24;;;;;;;;;;;8.70;99.90;;;;;;12473747;28;19936;-85
2022/09/28 19:08:26;;;;;;;;;;;8.60;99.90;;;;;;12461026;28;19936;-85
2022/09/28 19:14:28;;;;;;;;;;;8.60;99.90;;;;;;12463999;28;19925;-85
2022/09/28 19:20:31;;;;;;;;;;;8.50;99.90;;;;;;12458305;28;19940;-85
2022/09/28 19:26:33;;;;;;;;;;;8.50;99.90;;;;;;12464082;28;19929;-85
2022/09/28 19:32:34;;;;;;;;;;;8.40;99.90;;;;;;12463212;28;19940;-85
2022/09/28 19:38:37;;;;;;;;;;;8.40;99.90;;;;;;12468062;28;19936;-85
2022/09/28 19:44:39;;;;;;;;;;;8.40;99.90;;;;;;12483086;28;19925;-85
2022/09/28 19:50:40;;;;;;;;;;;8.30;99.90;;;;;;12470188;28;19932;-85
2022/09/28 19:56:43;;;;;;;;;;;8.30;99.90;;;;;;12453438;28;19929;-85
2022/09/28 20:02:45;;;;;;;;;;;8.30;99.90;;;;;;12473309;28;19925;-85
2022/09/28 20:08:46;;;;;;;;;;;8.30;99.90;;;;;;12459533;28;19967;-85
2022/09/28 20:14:48;;;;;;;;;;;8.30;99.90;;;;;;12458685;28;19929;-85
2022/09/28 20:20:59;;;;;;;;;;;8.30;99.90;;;;;;12454748;28;19925;-85
2022/09/28 20:27:01;;;;;;;;;;;8.30;99.90;;;;;;12463639;28;19956;-85
2022/09/28 20:33:06;;;;;;;;;;;8.30;99.90;;;;;;12465803;28;19929;-85
2022/09/28 20:39:08;;;;;;;;;;;8.40;99.90;;;;;;12492896;28;19925;-85
2022/09/28 20:45:10;;;;;;;;;;;8.20;99.90;;;;;;12484092;28;19925;-85
2022/09/28 20:51:14;;;;;;;;;;;8.20;99.90;;;;;;12478376;28;19925;-85
2022/09/28 20:57:18;;;;;;;;;;;8.20;99.90;;;;;;12460985;28;19925;-85
2022/09/28 21:03:20;;;;;;;;;;;8.20;99.90;;;;;;12471889;28;19932;-85
2022/09/28 21:09:22;;;;;;;;;;;8.30;99.90;;;;;;12457449;28;20317;-85
2022/09/28 21:15:23;;;;;;;;;;;8.30;99.90;;;;;;12466653;28;19937;-85
2022/09/28 21:21:25;;;;;;;;;;;8.30;99.90;;;;;;12466001;28;20071;-85
2022/09/28 21:27:27;;;;;;;;;;;8.20;99.90;;;;;;12480423;28;20328;-85
2022/09/28 21:33:28;;;;;;;;;;;8.30;99.90;;;;;;12458846;28;19932;-85
2022/09/28 21:39:30;;;;;;;;;;;8.20;99.90;;;;;;12477392;28;19932;-85
2022/09/28 21:45:31;;;;;;;;;;;8.20;99.90;;;;;;12474280;28;19929;-85
2022/09/28 21:51:34;;;;;;;;;;;8.20;99.90;;;;;;12464012;28;19925;-85
2022/09/28 21:57:35;;;;;;;;;;;8.20;99.90;;;;;;12461063;28;19925;-85
2022/09/28 22:03:37;;;;;;;;;;;8.10;99.90;;;;;;12478013;28;19937;-85
2022/09/28 22:09:38;;;;;;;;;;;8.20;99.90;;;;;;12463643;28;19925;-85
2022/09/28 22:15:40;;;;;;;;;;;8.20;99.90;;;;;;12459630;28;19983;-85
2022/09/28 22:21:42;;;;;;;;;;;8.30;99.90;;;;;;12455762;28;20281;-85
2022/09/28 22:27:46;;;;;;;;;;;8.30;99.90;;;;;;12452179;28;19930;-85
2022/09/28 22:33:48;;;;;;;;;;;8.00;99.90;;;;;;12472247;28;20258;-85
2022/09/28 22:39:50;;;;;;;;;;;7.90;99.90;;;;;;12472429;28;19929;-85
2022/09/28 22:46:05;;;;;;;;;;;7.70;99.90;;;;;;12469832;28;20293;-85
2022/09/28 22:52:07;;;;;;;;;;;7.60;99.90;;;;;;12471800;28;19936;-85
2022/09/28 22:58:09;;;;;;;;;;;7.70;99.90;;;;;;12471539;28;19933;-85
2022/09/28 23:04:10;;;;;;;;;;;7.70;99.90;;;;;;12482427;28;19925;-85
2022/09/28 23:10:12;;;;;;;;;;;7.80;99.90;;;;;;12450291;28;19925;-85
2022/09/28 23:16:14;;;;;;;;;;;7.90;99.90;;;;;;12466823;28;19925;-85
2022/09/28 23:22:15;;;;;;;;;;;8.00;99.90;;;;;;12454715;28;19925;-85
2022/09/28 23:28:18;;;;;;;;;;;7.90;99.90;;;;;;12461042;28;19941;-84
2022/09/28 23:34:19;;;;;;;;;;;8.00;99.90;;;;;;12466269;28;19925;-85
2022/09/28 23:40:21;;;;;;;;;;;8.00;99.90;;;;;;12474440;28;19925;-85
2022/09/28 23:46:23;;;;;;;;;;;7.90;99.90;;;;;;12467433;28;19929;-85
2022/09/28 23:52:25;;;;;;;;;;;8.00;99.90;;;;;;12468745;28;20064;-85
2022/09/28 23:58:27;;;;;;;;;;;8.00;99.90;;;;;;12460021;28;19971;-85
